Time;durP1;ratioP1;P1;durP2;ratioP2;P2;SDS_P1;SDS_P2;PMS_P1;PMS_P2;Temp;Humidity;BMP_temperature;BMP_pressure;BME280_temperature;BME280_humidity;BME280_pressure;Samples;Min_cycle;Max_cycle;Signal;HPM_P1;HPM_P2
2022/12/09 00:01:53;;;;;;;47.40;31.73;;;-1.50;99.90;;;;;;5073454;28;20792;-75
2022/12/09 00:04:22;;;;;;;43.57;30.17;;;-1.50;99.90;;;;;;5073502;28;20498;-75
2022/12/09 00:06:51;;;;;;;44.10;29.73;;;-1.50;99.90;;;;;;5073906;28;20460;-78
2022/12/09 00:09:19;;;;;;;48.57;31.43;;;-1.50;99.90;;;;;;5073543;28;20458;-77
2022/12/09 00:11:48;;;;;;;48.57;31.10;;;-1.50;99.90;;;;;;5073284;28;20445;-80
2022/12/09 00:14:16;;;;;;;48.53;30.47;;;-1.50;99.90;;;;;;5073552;28;20852;-78
2022/12/09 00:16:44;;;;;;;45.90;30.90;;;-1.40;99.90;;;;;;5084661;28;20957;-80
2022/12/09 00:19:13;;;;;;;46.33;30.93;;;-1.40;99.90;;;;;;5077826;28;20555;-79
2022/12/09 00:21:42;;;;;;;46.57;30.13;;;-1.40;99.90;;;;;;5093343;28;20437;-78
2022/12/09 00:24:13;;;;;;;44.53;30.00;;;-1.40;99.90;;;;;;5092413;28;20523;-79
2022/12/09 00:26:41;;;;;;;43.87;29.97;;;-1.30;99.90;;;;;;5092955;28;20517;-79
2022/12/09 00:29:11;;;;;;;44.77;30.47;;;-1.30;99.90;;;;;;5092358;28;20516;-80
2022/12/09 00:31:39;;;;;;;46.80;30.67;;;-1.20;99.90;;;;;;5093269;28;20456;-79
2022/12/09 00:34:11;;;;;;;45.27;30.23;;;-1.30;99.90;;;;;;5092860;28;20790;-79
2022/12/09 00:36:40;;;;;;;43.33;29.67;;;-1.30;99.90;;;;;;5091812;28;20513;-78
2022/12/09 00:39:08;;;;;;;47.33;30.47;;;-1.30;99.90;;;;;;5090165;28;20471;-79
2022/12/09 00:41:38;;;;;;;44.63;29.83;;;-1.20;99.90;;;;;;5092288;28;20457;-80
2022/12/09 00:44:06;;;;;;;40.50;29.40;;;-1.20;99.90;;;;;;5092520;28;21010;-78
2022/12/09 00:46:34;;;;;;;42.43;29.20;;;-1.20;99.90;;;;;;5092579;28;20460;-78
2022/12/09 00:49:04;;;;;;;41.50;29.03;;;-1.20;99.90;;;;;;5092244;28;20448;-78
2022/12/09 00:51:32;;;;;;;41.27;29.43;;;-1.20;99.90;;;;;;5086092;28;20476;-79
2022/12/09 00:54:04;;;;;;;44.00;30.10;;;-1.20;99.90;;;;;;5072102;28;20450;-79
2022/12/09 00:56:33;;;;;;;43.93;29.03;;;-1.10;99.90;;;;;;5072419;28;20449;-78
2022/12/09 00:59:02;;;;;;;45.77;28.13;;;-1.30;99.90;;;;;;5072341;28;20518;-80
2022/12/09 01:01:30;;;;;;;40.30;27.90;;;-1.40;99.90;;;;;;5072436;28;20457;-76
2022/12/09 01:04:00;;;;;;;41.63;29.07;;;-1.40;99.90;;;;;;5072153;28;20991;-78
2022/12/09 01:06:29;;;;;;;42.40;28.77;;;-1.50;99.90;;;;;;5072052;28;20542;-77
2022/12/09 01:08:58;;;;;;;42.13;28.00;;;-1.50;99.90;;;;;;5072416;28;20461;-78
2022/12/09 01:11:28;;;;;;;43.03;28.40;;;-1.50;99.90;;;;;;5084029;28;20466;-79
2022/12/09 01:13:59;;;;;;;49.03;30.40;;;-1.60;99.90;;;;;;5072401;28;20454;-80
2022/12/09 01:16:32;;;;;;;44.03;29.33;;;-1.60;99.90;;;;;;5078767;28;20783;-79
2022/12/09 01:19:03;;;;;;;45.73;30.50;;;-1.70;99.90;;;;;;5091620;28;20479;-79
2022/12/09 01:21:31;;;;;;;46.13;29.70;;;-1.70;99.90;;;;;;5092373;28;20457;-77
2022/12/09 01:24:00;;;;;;;44.13;28.60;;;-1.70;99.90;;;;;;5091558;28;20481;-77
2022/12/09 01:26:28;;;;;;;44.77;30.33;;;-1.80;99.90;;;;;;5088004;28;20820;-80
2022/12/09 01:28:56;;;;;;;45.20;29.57;;;-1.80;99.90;;;;;;5072030;28;20454;-78
2022/12/09 01:31:25;;;;;;;47.50;30.50;;;-1.80;99.90;;;;;;5072087;28;20458;-80
2022/12/09 01:33:56;;;;;;;46.50;30.00;;;-1.90;99.90;;;;;;5071684;28;20855;-81
2022/12/09 01:36:26;;;;;;;52.63;32.07;;;-1.80;99.90;;;;;;5072202;28;20539;-80
2022/12/09 01:38:56;;;;;;;49.13;31.43;;;-1.90;99.90;;;;;;5071909;28;20780;-74
2022/12/09 01:41:24;;;;;;;51.63;31.63;;;-1.90;99.90;;;;;;5072061;28;20442;-78
2022/12/09 01:44:14;;;;;;;51.33;32.37;;;-1.90;99.90;;;;;;5074328;28;20992;-78
2022/12/09 01:46:43;;;;;;;52.07;31.63;;;-2.00;99.90;;;;;;5091790;28;20435;-77
2022/12/09 01:49:17;;;;;;;48.43;31.03;;;-2.00;99.90;;;;;;5091719;28;20462;-77
2022/12/09 01:51:56;;;;;;;48.47;31.10;;;-2.00;99.90;;;;;;5091741;28;20966;-80
2022/12/09 01:54:24;;;;;;;52.03;31.30;;;-2.00;99.90;;;;;;5091219;28;20468;-78
2022/12/09 01:56:53;;;;;;;50.03;31.67;;;-2.00;99.90;;;;;;5091835;28;20505;-77
2022/12/09 01:59:23;;;;;;;49.73;29.93;;;-2.10;99.90;;;;;;5091786;28;20453;-78
2022/12/09 02:01:56;;;;;;;46.93;29.80;;;-2.10;99.90;;;;;;5091667;28;20852;-79
2022/12/09 02:04:28;;;;;;;45.93;29.67;;;-2.10;99.90;;;;;;5072136;28;20975;-77
2022/12/09 02:06:58;;;;;;;49.17;30.50;;;-2.10;99.90;;;;;;5071506;28;20939;-77
2022/12/09 02:09:27;;;;;;;50.87;30.73;;;-2.10;99.90;;;;;;5071450;28;20432;-75
2022/12/09 02:12:09;;;;;;;50.60;31.70;;;-2.20;99.90;;;;;;5074808;28;20457;-78
2022/12/09 02:14:42;;;;;;;52.40;32.20;;;-2.10;99.90;;;;;;5086193;28;20453;-76
2022/12/09 02:17:26;;;;;;;55.17;32.10;;;-2.10;99.90;;;;;;5071555;28;20442;-75
2022/12/09 02:20:03;;;;;;;50.23;30.23;;;-2.10;99.90;;;;;;5076656;28;20529;-76
2022/12/09 02:22:38;;;;;;;49.37;29.90;;;-2.10;99.90;;;;;;5076614;28;20530;-75
2022/12/09 02:25:16;;;;;;;47.23;29.67;;;-2.10;99.90;;;;;;5076852;28;20530;-79
2022/12/09 02:27:49;;;;;;;59.83;29.90;;;-2.00;99.90;;;;;;5073840;28;20426;-80
2022/12/09 02:30:21;;;;;;;48.57;30.83;;;-2.00;99.90;;;;;;5074723;28;20869;-79
2022/12/09 02:33:12;;;;;;;46.60;29.43;;;-2.10;99.90;;;;;;5074843;28;20452;-80
2022/12/09 02:35:48;;;;;;;41.53;27.70;;;-2.10;99.90;;;;;;5074709;28;20497;-80
2022/12/09 02:38:20;;;;;;;40.93;26.77;;;-2.10;99.90;;;;;;5074929;28;20499;-80
2022/12/09 02:40:53;;;;;;;40.33;26.67;;;-2.10;99.90;;;;;;5089348;28;20472;-77
2022/12/09 02:43:26;;;;;;;39.37;26.87;;;-2.10;99.90;;;;;;5094837;28;20808;-78
2022/12/09 02:45:55;;;;;;;37.00;25.10;;;-2.10;99.90;;;;;;5094905;28;20966;-77
2022/12/09 02:48:27;;;;;;;36.27;25.20;;;-2.10;99.90;;;;;;5094893;28;20462;-79
2022/12/09 02:50:58;;;;;;;36.10;24.23;;;-2.10;99.90;;;;;;5078109;28;20466;-77
2022/12/09 02:53:27;;;;;;;33.23;24.33;;;-2.10;99.90;;;;;;5074200;28;20466;-81
2022/12/09 02:55:56;;;;;;;34.57;24.50;;;-2.10;99.90;;;;;;5074637;28;20442;-80
2022/12/09 02:58:24;;;;;;;35.30;23.87;;;-2.10;99.90;;;;;;5074582;28;20654;-79
2022/12/09 03:00:55;;;;;;;36.97;23.77;;;-2.10;99.90;;;;;;5075106;28;20465;-80
2022/12/09 03:03:26;;;;;;;33.70;24.00;;;-2.10;99.90;;;;;;5074451;28;20445;-81
2022/12/09 03:06:01;;;;;;;33.50;24.17;;;-2.10;99.90;;;;;;5074260;28;20540;-77
2022/12/09 03:08:37;;;;;;;32.73;23.47;;;-2.10;99.90;;;;;;5074304;28;20471;-80
2022/12/09 03:11:07;;;;;;;35.33;24.37;;;-2.00;99.90;;;;;;5074471;28;20516;-79
2022/12/09 03:13:44;;;;;;;36.03;24.03;;;-2.00;99.90;;;;;;5074059;28;20576;-80
2022/12/09 03:16:33;;;;;;;33.63;23.27;;;-2.00;99.90;;;;;;5074485;28;20461;-80
2022/12/09 03:19:06;;;;;;;32.83;22.67;;;-1.90;99.90;;;;;;5074275;28;20580;-79
2022/12/09 03:21:38;;;;;;;33.37;23.53;;;-1.90;99.90;;;;;;5074230;28;20446;-79
2022/12/09 03:24:10;;;;;;;33.60;24.60;;;-1.80;99.90;;;;;;5074264;28;20427;-78
2022/12/09 03:26:40;;;;;;;32.97;23.43;;;-1.80;99.90;;;;;;5091772;28;20494;-77
2022/12/09 03:29:13;;;;;;;32.30;23.23;;;-1.70;99.90;;;;;;5093074;28;20543;-78
2022/12/09 03:31:42;;;;;;;34.17;22.70;;;-1.70;99.90;;;;;;5094423;28;20452;-80
2022/12/09 03:34:16;;;;;;;35.07;24.20;;;-1.70;99.90;;;;;;5093482;28;20869;-80
2022/12/09 03:36:48;;;;;;;33.23;22.97;;;-1.80;99.90;;;;;;5093383;28;20478;-79
2022/12/09 03:39:23;;;;;;;34.87;24.30;;;-1.70;99.90;;;;;;5094333;28;20445;-80
2022/12/09 03:41:56;;;;;;;34.77;24.50;;;-1.70;99.90;;;;;;5097491;28;20487;-75
2022/12/09 03:44:30;;;;;;;37.80;25.03;;;-1.80;99.90;;;;;;5094132;28;20464;-78
2022/12/09 03:46:58;;;;;;;39.53;25.80;;;-1.80;99.90;;;;;;5093641;28;21057;-80
2022/12/09 03:49:27;;;;;;;32.03;24.77;;;-1.80;99.90;;;;;;5092940;28;20528;-80
2022/12/09 03:52:04;;;;;;;33.53;24.23;;;-1.80;99.90;;;;;;5093227;28;20457;-79
2022/12/09 03:54:35;;;;;;;36.20;25.87;;;-1.80;99.90;;;;;;5074896;28;20540;-78
2022/12/09 03:57:05;;;;;;;34.97;25.17;;;-1.80;99.90;;;;;;5093786;28;20456;-80
2022/12/09 03:59:35;;;;;;;32.97;24.70;;;-1.80;99.90;;;;;;5094086;28;20793;-78
2022/12/09 04:02:05;;;;;;;32.23;24.17;;;-1.80;99.90;;;;;;5093878;28;20468;-79
2022/12/09 04:04:35;;;;;;;34.13;24.33;;;-1.80;99.90;;;;;;5093846;28;20461;-80
2022/12/09 04:07:05;;;;;;;34.20;24.30;;;-1.80;99.90;;;;;;5093652;28;20536;-74
2022/12/09 04:09:33;;;;;;;35.37;24.47;;;-1.80;99.90;;;;;;5093770;28;20512;-80
2022/12/09 04:12:02;;;;;;;30.90;21.90;;;-1.80;99.90;;;;;;5073914;28;20489;-79
2022/12/09 04:14:30;;;;;;;29.20;21.73;;;-1.80;99.90;;;;;;5087768;28;20441;-78
2022/12/09 04:16:58;;;;;;;29.80;20.20;;;-1.70;99.90;;;;;;5093509;28;20804;-78
2022/12/09 04:19:27;;;;;;;25.70;18.83;;;-1.80;99.90;;;;;;5093669;28;20437;-80
2022/12/09 04:21:55;;;;;;;28.83;20.60;;;-1.70;99.90;;;;;;5093076;28;20593;-79
2022/12/09 04:24:25;;;;;;;26.93;19.00;;;-1.70;99.90;;;;;;5093937;28;20482;-80
2022/12/09 04:26:53;;;;;;;26.40;19.00;;;-1.80;99.90;;;;;;5093044;28;20478;-78
2022/12/09 04:29:21;;;;;;;25.67;19.00;;;-1.70;99.90;;;;;;5093295;28;20455;-79
2022/12/09 04:31:50;;;;;;;30.60;20.10;;;-1.70;99.90;;;;;;5092728;28;20496;-77
2022/12/09 04:34:19;;;;;;;27.60;19.57;;;-1.70;99.90;;;;;;5093440;28;20449;-79
2022/12/09 04:36:48;;;;;;;26.33;19.10;;;-1.70;99.90;;;;;;5092737;28;20472;-77
2022/12/09 04:39:18;;;;;;;25.40;20.27;;;-1.70;99.90;;;;;;5092462;28;20473;-78
2022/12/09 04:41:47;;;;;;;27.37;20.40;;;-1.60;99.90;;;;;;5092542;28;20490;-79
2022/12/09 04:44:16;;;;;;;26.43;20.40;;;-1.70;99.90;;;;;;5092559;28;20444;-78
2022/12/09 04:46:44;;;;;;;28.23;20.53;;;-1.70;99.90;;;;;;5092400;28;20483;-78
2022/12/09 04:49:12;;;;;;;30.73;21.10;;;-1.70;99.90;;;;;;5092432;28;20472;-79
2022/12/09 04:51:40;;;;;;;26.77;20.53;;;-1.60;99.90;;;;;;5092782;28;20456;-80
2022/12/09 04:54:13;;;;;;;28.67;21.50;;;-1.60;99.90;;;;;;5092653;28;20471;-76
2022/12/09 04:56:41;;;;;;;28.73;21.70;;;-1.60;99.90;;;;;;5092520;28;20480;-78
2022/12/09 04:59:12;;;;;;;31.00;22.53;;;-1.60;99.90;;;;;;5093098;28;20453;-81
2022/12/09 05:01:40;;;;;;;34.57;24.53;;;-1.60;99.90;;;;;;5092714;28;20556;-80
2022/12/09 05:04:09;;;;;;;31.43;23.87;;;-1.60;99.90;;;;;;5092338;28;20820;-80
2022/12/09 05:06:37;;;;;;;33.97;25.07;;;-1.60;99.90;;;;;;5092266;28;20635;-79
2022/12/09 05:09:05;;;;;;;37.00;27.03;;;-1.60;99.90;;;;;;5092350;28;20934;-80
2022/12/09 05:11:37;;;;;;;39.50;27.93;;;-1.50;99.90;;;;;;5092764;28;20531;-80
2022/12/09 05:14:06;;;;;;;40.40;28.50;;;-1.50;99.90;;;;;;5092424;28;20456;-79
2022/12/09 05:16:36;;;;;;;40.23;28.47;;;-1.50;99.90;;;;;;5092426;28;20463;-77
2022/12/09 05:19:04;;;;;;;36.70;26.77;;;-1.50;99.90;;;;;;5093269;28;20437;-79
2022/12/09 05:21:33;;;;;;;38.97;26.73;;;-1.50;99.90;;;;;;5092827;28;20819;-80
2022/12/09 05:24:05;;;;;;;33.27;24.73;;;-1.50;99.90;;;;;;5092309;28;20460;-79
2022/12/09 05:26:33;;;;;;;32.50;24.97;;;-1.50;99.90;;;;;;5091708;28;20849;-80
2022/12/09 05:29:02;;;;;;;35.33;25.17;;;-1.50;99.90;;;;;;5092351;28;20481;-77
2022/12/09 05:31:30;;;;;;;34.50;25.23;;;-1.50;99.90;;;;;;5092059;28;20922;-79
2022/12/09 05:34:00;;;;;;;36.80;25.07;;;-1.60;99.90;;;;;;5092016;28;20514;-80
2022/12/09 05:36:29;;;;;;;36.00;26.27;;;-1.60;99.90;;;;;;5091829;28;20452;-78
2022/12/09 05:38:57;;;;;;;38.10;26.77;;;-1.60;99.90;;;;;;5092241;28;20452;-80
2022/12/09 05:41:25;;;;;;;38.07;27.47;;;-1.60;99.90;;;;;;5092472;28;20894;-77
2022/12/09 05:43:54;;;;;;;38.23;28.63;;;-1.60;99.90;;;;;;5090288;28;20475;-80
2022/12/09 05:46:22;;;;;;;38.67;28.33;;;-1.70;99.90;;;;;;5092283;28;20499;-79
2022/12/09 05:48:51;;;;;;;39.53;28.90;;;-1.60;99.90;;;;;;5091927;28;20518;-76
2022/12/09 05:51:24;;;;;;;39.83;28.50;;;-1.70;99.90;;;;;;5092383;28;20453;-77
2022/12/09 05:53:53;;;;;;;37.73;28.00;;;-1.70;99.90;;;;;;5095179;28;20946;-78
2022/12/09 05:56:23;;;;;;;40.60;29.77;;;-1.70;99.90;;;;;;5095991;28;20541;-76
2022/12/09 05:58:53;;;;;;;41.43;29.23;;;-1.70;99.90;;;;;;5096266;28;20491;-77
2022/12/09 06:01:23;;;;;;;41.80;30.17;;;-1.70;99.90;;;;;;5096631;28;20510;-78
2022/12/09 06:03:53;;;;;;;38.93;28.53;;;-1.80;99.90;;;;;;5095990;28;20488;-80
2022/12/09 06:06:26;;;;;;;41.00;29.10;;;-1.80;99.90;;;;;;5096402;28;20564;-74
2022/12/09 06:08:56;;;;;;;42.37;28.73;;;-1.80;99.90;;;;;;5096530;28;20464;-80
2022/12/09 06:11:26;;;;;;;43.37;30.57;;;-1.80;99.90;;;;;;5096486;28;20455;-79
2022/12/09 06:13:55;;;;;;;43.37;29.40;;;-1.80;99.90;;;;;;5096311;28;20476;-79
2022/12/09 06:16:24;;;;;;;42.10;29.53;;;-1.80;99.90;;;;;;5096501;28;20449;-77
2022/12/09 06:18:53;;;;;;;42.07;29.10;;;-1.80;99.90;;;;;;5095964;28;20475;-77
2022/12/09 06:21:23;;;;;;;42.63;31.77;;;-1.80;99.90;;;;;;5096116;28;20453;-75
2022/12/09 06:23:52;;;;;;;44.77;31.23;;;-1.80;99.90;;;;;;5096298;28;20522;-80
2022/12/09 06:26:23;;;;;;;44.10;30.37;;;-1.80;99.90;;;;;;5097441;28;20490;-80
2022/12/09 06:28:53;;;;;;;42.20;30.80;;;-1.60;99.90;;;;;;5097359;28;20456;-73
2022/12/09 06:31:21;;;;;;;41.90;29.90;;;-1.80;99.90;;;;;;5097839;28;20556;-76
2022/12/09 06:33:50;;;;;;;43.00;30.93;;;-1.80;99.90;;;;;;5094507;28;20495;-78
2022/12/09 06:36:25;;;;;;;46.73;31.70;;;-1.80;99.90;;;;;;5092848;28;20518;-75
2022/12/09 06:38:55;;;;;;;42.03;30.90;;;-1.70;99.90;;;;;;5095870;28;20443;-78
2022/12/09 06:41:24;;;;;;;43.13;29.73;;;-1.70;99.90;;;;;;5096404;28;20439;-77
2022/12/09 06:43:53;;;;;;;40.97;29.83;;;-1.70;99.90;;;;;;5093851;28;20456;-76
2022/12/09 06:46:22;;;;;;;40.73;29.23;;;-1.70;99.90;;;;;;5095614;28;20433;-77
2022/12/09 06:48:52;;;;;;;42.33;30.40;;;-1.70;99.90;;;;;;5095771;28;20465;-74
2022/12/09 06:51:23;;;;;;;44.23;31.17;;;-1.70;99.90;;;;;;5095509;28;20517;-79
2022/12/09 06:53:53;;;;;;;42.63;29.73;;;-1.70;99.90;;;;;;5094756;28;20483;-77
2022/12/09 06:56:21;;;;;;;41.43;30.10;;;-1.60;99.90;;;;;;5095953;28;20450;-78
2022/12/09 06:58:50;;;;;;;43.40;30.67;;;-1.60;99.90;;;;;;5096412;28;20813;-78
2022/12/09 07:01:21;;;;;;;42.50;30.73;;;-1.60;99.90;;;;;;5096386;28;20993;-76
2022/12/09 07:03:55;;;;;;;44.10;31.90;;;-1.50;99.90;;;;;;5095525;28;20486;-77
2022/12/09 07:06:29;;;;;;;42.23;30.77;;;-1.50;99.90;;;;;;5095282;28;20482;-78
2022/12/09 07:09:00;;;;;;;41.63;30.67;;;-1.50;99.90;;;;;;5095047;28;20449;-77
2022/12/09 07:11:29;;;;;;;41.17;29.83;;;-1.50;99.90;;;;;;5095173;28;20429;-74
2022/12/09 07:13:58;;;;;;;42.03;30.27;;;-1.50;99.90;;;;;;5095133;28;20449;-78
2022/12/09 07:16:27;;;;;;;41.67;30.57;;;-1.50;99.90;;;;;;5094973;28;20943;-78
2022/12/09 07:18:55;;;;;;;41.93;29.87;;;-1.40;99.90;;;;;;5094775;28;20456;-76
2022/12/09 07:21:27;;;;;;;38.83;29.43;;;-1.30;99.90;;;;;;5095447;28;20530;-78
2022/12/09 07:23:58;;;;;;;40.93;29.67;;;-1.30;99.90;;;;;;5095268;28;20475;-77
2022/12/09 07:26:27;;;;;;;36.63;28.43;;;-1.30;99.90;;;;;;5094684;28;20464;-76
2022/12/09 07:28:55;;;;;;;40.33;30.50;;;-1.30;99.90;;;;;;5094419;28;20476;-79
2022/12/09 07:31:25;;;;;;;42.37;30.90;;;-1.30;99.90;;;;;;5094906;28;20480;-78
2022/12/09 07:33:56;;;;;;;43.40;31.30;;;-1.30;99.90;;;;;;5094198;28;20532;-77
2022/12/09 07:36:28;;;;;;;43.90;30.80;;;-1.30;99.90;;;;;;5094688;28;20483;-76
2022/12/09 07:38:57;;;;;;;44.50;32.13;;;-1.30;99.90;;;;;;5094025;28;20453;-77
2022/12/09 07:41:26;;;;;;;46.10;30.90;;;-1.30;99.90;;;;;;5086274;28;20464;-75
2022/12/09 07:43:56;;;;;;;41.60;30.90;;;-1.20;99.90;;;;;;5094199;28;20434;-76
2022/12/09 07:46:26;;;;;;;46.67;32.07;;;-1.30;99.90;;;;;;5099028;28;20966;-74
2022/12/09 07:48:55;;;;;;;42.60;31.30;;;-1.20;99.90;;;;;;5096845;28;20465;-75
2022/12/09 07:51:28;;;;;;;44.73;31.93;;;-1.20;99.90;;;;;;5105011;28;20860;-76
2022/12/09 07:54:00;;;;;;;45.80;31.87;;;-1.20;99.90;;;;;;5091386;28;20457;-74
2022/12/09 07:56:29;;;;;;;43.87;31.73;;;-1.20;99.90;;;;;;5094451;28;20476;-78
2022/12/09 07:58:58;;;;;;;44.93;32.37;;;-1.10;99.90;;;;;;5094601;28;20446;-78
2022/12/09 08:01:28;;;;;;;47.83;32.37;;;-1.20;99.90;;;;;;5094309;28;20815;-80
2022/12/09 08:03:57;;;;;;;50.10;34.80;;;-1.20;99.90;;;;;;5091916;28;20965;-78
2022/12/09 08:06:30;;;;;;;50.27;34.47;;;-1.10;99.90;;;;;;5094046;28;20469;-77
2022/12/09 08:09:00;;;;;;;49.77;34.53;;;-1.10;99.90;;;;;;5094271;28;20473;-77
2022/12/09 08:11:31;;;;;;;54.03;34.17;;;-1.10;99.90;;;;;;5093847;28;20432;-79
2022/12/09 08:14:01;;;;;;;48.80;34.57;;;-1.10;99.90;;;;;;5093642;28;20491;-76
2022/12/09 08:16:38;;;;;;;54.13;34.97;;;-1.10;99.90;;;;;;5085063;28;20433;-77
2022/12/09 08:19:10;;;;;;;53.63;35.57;;;-1.10;99.90;;;;;;5093877;28;20490;-76
2022/12/09 08:21:41;;;;;;;61.97;37.07;;;-1.10;99.90;;;;;;5094058;28;20459;-76
2022/12/09 08:24:11;;;;;;;56.70;36.67;;;-1.10;99.90;;;;;;5093946;28;20472;-78
2022/12/09 08:26:40;;;;;;;55.80;36.97;;;-1.10;99.90;;;;;;5093746;28;20455;-78
2022/12/09 08:29:10;;;;;;;127.97;86.17;;;-1.20;99.90;;;;;;5093491;28;20480;-79
2022/12/09 08:31:41;;;;;;;58.50;38.77;;;0.30;99.90;;;;;;5093823;28;20448;-77
2022/12/09 08:34:10;;;;;;;50.93;35.20;;;-0.20;99.90;;;;;;5087448;28;20492;-77
2022/12/09 08:36:41;;;;;;;53.10;34.47;;;-0.60;99.90;;;;;;5094129;28;20487;-75
2022/12/09 08:39:11;;;;;;;54.13;34.00;;;-0.80;99.90;;;;;;5089292;28;20951;-76
2022/12/09 08:41:40;;;;;;;55.83;34.80;;;-0.90;99.90;;;;;;5086870;28;21000;-77
2022/12/09 08:44:10;;;;;;;54.67;35.43;;;-1.00;99.90;;;;;;5092008;28;20521;-72
2022/12/09 08:46:41;;;;;;;56.77;35.67;;;-1.00;99.90;;;;;;5093914;28;20441;-75
2022/12/09 08:49:10;;;;;;;58.63;36.93;;;-1.10;99.90;;;;;;5091638;28;21022;-75
2022/12/09 08:51:40;;;;;;;63.60;39.07;;;-1.20;99.90;;;;;;5093360;28;20426;-78
2022/12/09 08:54:09;;;;;;;65.10;39.63;;;-1.10;99.90;;;;;;5093111;28;20449;-79
2022/12/09 08:56:37;;;;;;;59.60;36.93;;;-1.20;99.90;;;;;;5092937;28;20792;-73
2022/12/09 08:59:06;;;;;;;64.80;37.63;;;-1.10;99.90;;;;;;5088089;28;20437;-76
2022/12/09 09:01:35;;;;;;;63.27;38.43;;;-1.10;99.90;;;;;;5092942;28;20448;-76
2022/12/09 09:04:06;;;;;;;58.03;37.67;;;-1.10;99.90;;;;;;5092971;28;20465;-75
2022/12/09 09:06:35;;;;;;;60.63;37.83;;;-1.00;99.90;;;;;;5088861;28;20442;-77
2022/12/09 09:09:06;;;;;;;58.67;35.27;;;-1.00;99.90;;;;;;5090023;28;20579;-76
2022/12/09 09:11:35;;;;;;;56.10;35.67;;;-1.00;99.90;;;;;;5087048;28;20807;-79
2022/12/09 09:14:06;;;;;;;58.87;36.50;;;-1.00;99.90;;;;;;5097994;28;20820;-76
2022/12/09 09:16:35;;;;;;;56.00;35.47;;;-1.00;99.90;;;;;;5093005;28;20410;-73
2022/12/09 09:19:04;;;;;;;57.73;36.63;;;-0.90;99.90;;;;;;5092496;28;20571;-77
2022/12/09 09:21:34;;;;;;;54.60;34.60;;;-0.90;99.90;;;;;;5077494;28;20465;-78
2022/12/09 09:24:10;;;;;;;55.20;35.23;;;-0.90;99.90;;;;;;5080532;28;20829;-74
2022/12/09 09:26:41;;;;;;;53.13;33.90;;;-0.90;99.90;;;;;;5092932;28;20544;-74
2022/12/09 09:29:11;;;;;;;54.60;35.00;;;-0.90;99.90;;;;;;5103104;28;20494;-76
2022/12/09 09:31:40;;;;;;;51.87;33.47;;;-0.90;99.90;;;;;;5112780;28;20490;-76
2022/12/09 09:34:09;;;;;;;50.17;33.63;;;-0.90;99.90;;;;;;5094235;28;20541;-73
2022/12/09 09:36:39;;;;;;;52.47;32.77;;;-0.90;99.90;;;;;;5092471;28;21044;-74
2022/12/09 09:39:10;;;;;;;52.73;33.37;;;-0.80;99.90;;;;;;5101505;28;20551;-75
2022/12/09 09:41:47;;;;;;;50.40;32.87;;;-0.80;99.90;;;;;;5088593;28;20449;-74
2022/12/09 09:44:21;;;;;;;49.67;31.63;;;-0.80;99.90;;;;;;5079686;28;20436;-73
2022/12/09 09:46:52;;;;;;;51.20;32.60;;;-0.80;99.90;;;;;;5080577;28;20787;-75
2022/12/09 09:49:29;;;;;;;51.83;32.43;;;-0.70;99.90;;;;;;5080109;28;20505;-74
2022/12/09 09:51:59;;;;;;;47.87;30.27;;;-0.70;99.90;;;;;;5082024;28;20427;-75
2022/12/09 09:54:29;;;;;;;44.97;29.57;;;-0.70;99.90;;;;;;5085854;28;20446;-76
2022/12/09 09:57:04;;;;;;;46.43;30.17;;;-0.60;99.90;;;;;;5100446;28;20527;-77
2022/12/09 09:59:42;;;;;;;47.43;31.13;;;-0.60;99.90;;;;;;5082794;28;20457;-75
2022/12/09 10:02:19;;;;;;;50.47;31.47;;;-0.60;99.90;;;;;;5080477;28;20422;-77
2022/12/09 10:05:00;;;;;;;49.30;31.63;;;-0.50;99.90;;;;;;5083401;28;20525;-75
2022/12/09 10:07:38;;;;;;;49.43;31.20;;;-0.60;99.90;;;;;;5079629;28;20475;-77
2022/12/09 10:10:18;;;;;;;55.87;31.97;;;-0.60;99.90;;;;;;5089021;28;20488;-76
2022/12/09 10:12:59;;;;;;;49.03;31.87;;;-0.40;99.90;;;;;;5092703;28;20992;-76
2022/12/09 10:15:42;;;;;;;49.67;31.20;;;-0.50;99.90;;;;;;5090956;28;20761;-75
2022/12/09 10:18:19;;;;;;;48.87;30.37;;;-0.50;99.90;;;;;;5099078;28;20464;-76
2022/12/09 10:20:48;;;;;;;50.53;31.40;;;-0.50;99.90;;;;;;5098458;28;20540;-77
2022/12/09 10:23:17;;;;;;;50.57;31.97;;;-0.50;99.90;;;;;;5102297;28;20441;-76
2022/12/09 10:25:51;;;;;;;52.70;31.20;;;-0.40;99.90;;;;;;5101626;28;20471;-77
2022/12/09 10:28:24;;;;;;;53.40;34.13;;;-0.40;99.90;;;;;;5097827;28;20469;-76
2022/12/09 10:30:54;;;;;;;50.43;31.77;;;-0.40;99.90;;;;;;5104011;28;20811;-77
2022/12/09 10:33:27;;;;;;;51.73;31.67;;;-0.40;99.90;;;;;;5102910;28;20439;-76
2022/12/09 10:35:57;;;;;;;52.70;31.73;;;-0.40;99.90;;;;;;5099580;28;20500;-75
2022/12/09 10:38:26;;;;;;;52.33;32.23;;;-0.40;99.90;;;;;;5098043;28;20508;-75
2022/12/09 10:41:04;;;;;;;50.00;31.43;;;-0.40;99.90;;;;;;5101938;28;20449;-77
2022/12/09 10:43:37;;;;;;;49.97;31.67;;;-0.40;99.90;;;;;;5102279;28;20418;-77
2022/12/09 10:46:09;;;;;;;49.47;31.53;;;-0.40;99.90;;;;;;5097699;28;20468;-73
2022/12/09 10:48:54;;;;;;;53.07;31.53;;;-0.30;99.90;;;;;;5096078;28;20473;-76
2022/12/09 10:51:26;;;;;;;51.13;30.23;;;-0.30;99.90;;;;;;5102862;28;20452;-77
2022/12/09 10:53:57;;;;;;;51.30;32.37;;;-0.30;99.90;;;;;;5102234;28;20461;-76
2022/12/09 10:56:29;;;;;;;48.83;31.37;;;-0.20;99.90;;;;;;5087617;28;20469;-77
2022/12/09 10:59:10;;;;;;;51.10;32.37;;;-0.20;99.90;;;;;;5087709;28;20414;-75
2022/12/09 11:01:52;;;;;;;51.63;31.67;;;-0.20;99.90;;;;;;5084666;28;20460;-74
2022/12/09 11:04:24;;;;;;;51.17;31.80;;;-0.20;99.90;;;;;;5091306;28;20521;-75
2022/12/09 11:06:56;;;;;;;50.90;32.57;;;-0.30;99.90;;;;;;5096521;28;20461;-78
2022/12/09 11:09:29;;;;;;;48.47;31.13;;;-0.20;99.90;;;;;;5106336;28;20938;-73
2022/12/09 11:12:02;;;;;;;49.00;31.10;;;-0.30;99.90;;;;;;5098637;28;20497;-76
2022/12/09 11:14:35;;;;;;;50.93;31.87;;;-0.20;99.90;;;;;;5100040;28;20437;-77
2022/12/09 11:17:15;;;;;;;49.47;32.53;;;-0.20;99.90;;;;;;5100151;28;20997;-75
2022/12/09 11:19:47;;;;;;;49.10;31.20;;;-0.10;99.90;;;;;;5096196;28;20475;-74
2022/12/09 11:22:27;;;;;;;49.37;31.43;;;-0.20;99.90;;;;;;5097660;28;20457;-76
2022/12/09 11:25:14;;;;;;;45.10;30.87;;;-0.10;99.90;;;;;;5099404;28;20441;-75
2022/12/09 11:27:52;;;;;;;48.27;31.23;;;0.00;99.90;;;;;;5100515;28;20495;-75
2022/12/09 11:30:22;;;;;;;45.20;30.43;;;0.10;99.90;;;;;;5109826;28;20530;-75
2022/12/09 11:33:06;;;;;;;44.17;30.00;;;0.00;99.90;;;;;;5096389;28;20510;-74
2022/12/09 11:35:49;;;;;;;46.47;30.03;;;0.10;99.90;;;;;;5100408;28;20533;-76
2022/12/09 11:38:25;;;;;;;48.80;31.07;;;0.10;99.90;;;;;;5096176;28;20433;-76
2022/12/09 11:41:01;;;;;;;44.07;29.40;;;0.20;99.90;;;;;;5090573;28;20433;-77
2022/12/09 11:43:36;;;;;;;41.70;29.03;;;0.20;99.90;;;;;;5094969;28;20556;-75
2022/12/09 11:46:17;;;;;;;44.43;29.03;;;0.20;99.90;;;;;;5093389;28;20229;-76
2022/12/09 11:48:52;;;;;;;41.80;27.60;;;0.30;99.90;;;;;;5089743;28;20501;-73
2022/12/09 11:51:27;;;;;;;39.27;26.90;;;0.20;99.90;;;;;;5075075;28;20464;-75
2022/12/09 11:54:01;;;;;;;37.63;26.90;;;0.30;99.90;;;;;;5075770;28;20219;-74
2022/12/09 11:56:32;;;;;;;43.37;28.43;;;0.30;99.90;;;;;;5076821;28;20504;-76
2022/12/09 11:59:05;;;;;;;40.90;27.30;;;0.30;99.90;;;;;;5075687;28;20966;-75
2022/12/09 12:01:45;;;;;;;37.13;26.63;;;0.40;99.90;;;;;;5086316;28;20485;-75
2022/12/09 12:04:16;;;;;;;40.43;27.83;;;0.40;99.90;;;;;;5091697;28;20465;-75
2022/12/09 12:06:48;;;;;;;37.03;26.30;;;0.50;99.90;;;;;;5094074;28;20234;-73
2022/12/09 12:09:23;;;;;;;36.90;26.83;;;0.60;99.90;;;;;;5094984;28;20210;-73
2022/12/09 12:12:14;;;;;;;35.97;26.33;;;0.50;99.90;;;;;;5094234;28;20440;-76
2022/12/09 12:14:45;;;;;;;36.03;26.37;;;0.60;99.90;;;;;;5092909;28;20486;-74
2022/12/09 12:17:19;;;;;;;37.47;26.23;;;0.60;99.90;;;;;;5093898;28;20206;-76
2022/12/09 12:19:51;;;;;;;34.80;25.03;;;0.70;99.90;;;;;;5073192;28;20192;-76
2022/12/09 12:22:54;;;;;;;36.10;25.83;;;0.70;99.90;;;;;;5084824;28;20243;-76
2022/12/09 12:25:45;;;;;;;34.30;25.50;;;0.70;99.90;;;;;;5093749;28;20229;-77
2022/12/09 12:28:37;;;;;;;34.00;25.13;;;0.70;99.90;;;;;;5092363;28;20309;-78
2022/12/09 12:31:18;;;;;;;34.33;25.10;;;0.70;99.90;;;;;;5080745;28;21005;-75
2022/12/09 12:33:58;;;;;;;35.43;24.97;;;0.80;99.90;;;;;;5093364;28;20461;-77
2022/12/09 12:36:57;;;;;;;35.63;25.97;;;0.80;99.90;;;;;;5093277;28;20437;-78
2022/12/09 12:39:39;;;;;;;34.43;26.03;;;0.70;99.90;;;;;;5093768;28;20225;-77
2022/12/09 12:42:21;;;;;;;38.90;26.33;;;0.70;99.90;;;;;;5075276;28;20489;-75
2022/12/09 12:47:50;;;;;;;38.23;26.33;;;0.80;99.90;;;;;;5073833;28;20218;-77
2022/12/09 12:50:47;;;;;;;41.63;28.07;;;0.70;99.90;;;;;;5073872;28;20751;-75
2022/12/09 12:53:29;;;;;;;39.00;27.43;;;0.70;99.90;;;;;;5072411;28;20215;-75
2022/12/09 12:56:00;;;;;;;41.77;27.47;;;0.60;99.90;;;;;;5072993;28;20195;-73